sensor_id;sensor_type;location;lat;lon;timestamp;P1;durP1;ratioP1;P2;durP2;ratioP2
76039;SDS011;64736;50.462;4.850;2023-04-09T00:02:17;30.25;;;21.02;;
76039;SDS011;64736;50.462;4.850;2023-04-09T00:04:43;31.25;;;21.08;;
76039;SDS011;64736;50.462;4.850;2023-04-09T00:07:08;33.65;;;21.30;;
76039;SDS011;64736;50.462;4.850;2023-04-09T00:09:34;31.20;;;20.85;;
76039;SDS011;64736;50.462;4.850;2023-04-09T00:12:00;32.17;;;20.40;;
76039;SDS011;64736;50.462;4.850;2023-04-09T00:14:26;29.83;;;19.80;;
76039;SDS011;64736;50.462;4.850;2023-04-09T00:16:52;28.75;;;21.58;;
76039;SDS011;64736;50.462;4.850;2023-04-09T00:19:18;30.55;;;20.00;;
76039;SDS011;64736;50.462;4.850;2023-04-09T00:21:44;29.00;;;19.88;;
76039;SDS011;64736;50.462;4.850;2023-04-09T00:24:11;30.75;;;20.25;;
76039;SDS011;64736;50.462;4.850;2023-04-09T00:26:37;32.75;;;20.88;;
76039;SDS011;64736;50.462;4.850;2023-04-09T00:29:02;30.58;;;21.17;;
76039;SDS011;64736;50.462;4.850;2023-04-09T00:31:28;29.95;;;18.75;;
76039;SDS011;64736;50.462;4.850;2023-04-09T00:33:54;28.83;;;19.05;;
76039;SDS011;64736;50.462;4.850;2023-04-09T00:36:20;27.23;;;19.95;;
76039;SDS011;64736;50.462;4.850;2023-04-09T00:38:46;32.30;;;19.70;;
76039;SDS011;64736;50.462;4.850;2023-04-09T00:41:14;25.83;;;18.40;;
76039;SDS011;64736;50.462;4.850;2023-04-09T00:43:41;31.15;;;21.00;;
76039;SDS011;64736;50.462;4.850;2023-04-09T00:46:07;31.23;;;21.00;;
76039;SDS011;64736;50.462;4.850;2023-04-09T00:48:32;33.33;;;21.92;;
76039;SDS011;64736;50.462;4.850;2023-04-09T00:50:58;35.33;;;23.23;;
76039;SDS011;64736;50.462;4.850;2023-04-09T00:53:24;35.92;;;23.17;;
76039;SDS011;64736;50.462;4.850;2023-04-09T00:55:51;32.65;;;21.77;;
76039;SDS011;64736;50.462;4.850;2023-04-09T00:58:17;31.02;;;22.70;;
76039;SDS011;64736;50.462;4.850;2023-04-09T01:00:43;34.35;;;21.80;;
76039;SDS011;64736;50.462;4.850;2023-04-09T01:03:08;35.88;;;22.75;;
76039;SDS011;64736;50.462;4.850;2023-04-09T01:11:09;36.88;;;23.40;;
76039;SDS011;64736;50.462;4.850;2023-04-09T01:14:05;37.45;;;23.88;;
76039;SDS011;64736;50.462;4.850;2023-04-09T01:16:40;36.03;;;21.75;;
76039;SDS011;64736;50.462;4.850;2023-04-09T01:19:09;32.67;;;21.67;;
76039;SDS011;64736;50.462;4.850;2023-04-09T01:21:57;32.97;;;21.73;;
76039;SDS011;64736;50.462;4.850;2023-04-09T01:27:11;32.75;;;21.63;;
76039;SDS011;64736;50.462;4.850;2023-04-09T01:29:46;35.58;;;22.15;;
76039;SDS011;64736;50.462;4.850;2023-04-09T01:32:21;30.58;;;20.27;;
76039;SDS011;64736;50.462;4.850;2023-04-09T01:34:49;36.60;;;23.33;;
76039;SDS011;64736;50.462;4.850;2023-04-09T01:37:16;36.53;;;21.33;;
76039;SDS011;64736;50.462;4.850;2023-04-09T01:39:43;32.28;;;22.27;;
76039;SDS011;64736;50.462;4.850;2023-04-09T01:42:10;34.17;;;20.33;;
76039;SDS011;64736;50.462;4.850;2023-04-09T01:44:37;34.95;;;22.05;;
76039;SDS011;64736;50.462;4.850;2023-04-09T01:47:05;37.85;;;23.67;;
76039;SDS011;64736;50.462;4.850;2023-04-09T01:49:32;32.63;;;22.38;;
76039;SDS011;64736;50.462;4.850;2023-04-09T01:51:59;36.65;;;22.77;;
76039;SDS011;64736;50.462;4.850;2023-04-09T01:54:25;39.33;;;24.30;;
76039;SDS011;64736;50.462;4.850;2023-04-09T01:56:50;32.47;;;21.95;;
76039;SDS011;64736;50.462;4.850;2023-04-09T01:59:16;40.83;;;24.17;;
76039;SDS011;64736;50.462;4.850;2023-04-09T02:01:50;32.97;;;23.45;;
76039;SDS011;64736;50.462;4.850;2023-04-09T02:09:38;33.38;;;20.23;;
76039;SDS011;64736;50.462;4.850;2023-04-09T02:12:05;34.75;;;22.13;;
76039;SDS011;64736;50.462;4.850;2023-04-09T02:14:36;30.10;;;19.85;;
76039;SDS011;64736;50.462;4.850;2023-04-09T02:17:02;30.90;;;19.67;;
76039;SDS011;64736;50.462;4.850;2023-04-09T02:19:42;30.27;;;20.25;;
76039;SDS011;64736;50.462;4.850;2023-04-09T02:22:09;28.88;;;18.63;;
76039;SDS011;64736;50.462;4.850;2023-04-09T02:24:36;28.55;;;19.55;;
76039;SDS011;64736;50.462;4.850;2023-04-09T02:27:02;33.38;;;20.25;;
76039;SDS011;64736;50.462;4.850;2023-04-09T02:29:29;28.83;;;19.75;;
76039;SDS011;64736;50.462;4.850;2023-04-09T02:31:55;28.27;;;20.35;;
76039;SDS011;64736;50.462;4.850;2023-04-09T02:34:21;33.17;;;19.83;;
76039;SDS011;64736;50.462;4.850;2023-04-09T02:36:47;28.83;;;20.30;;
76039;SDS011;64736;50.462;4.850;2023-04-09T02:39:13;32.45;;;20.10;;
76039;SDS011;64736;50.462;4.850;2023-04-09T02:41:39;30.70;;;20.52;;
76039;SDS011;64736;50.462;4.850;2023-04-09T02:44:05;30.48;;;20.83;;
76039;SDS011;64736;50.462;4.850;2023-04-09T02:46:31;30.23;;;18.70;;
76039;SDS011;64736;50.462;4.850;2023-04-09T02:48:57;31.65;;;20.88;;
76039;SDS011;64736;50.462;4.850;2023-04-09T02:51:22;27.45;;;17.88;;
76039;SDS011;64736;50.462;4.850;2023-04-09T02:53:48;32.10;;;19.70;;
76039;SDS011;64736;50.462;4.850;2023-04-09T02:56:14;28.50;;;18.45;;
76039;SDS011;64736;50.462;4.850;2023-04-09T02:58:40;32.03;;;19.95;;
76039;SDS011;64736;50.462;4.850;2023-04-09T03:01:06;24.63;;;18.80;;
76039;SDS011;64736;50.462;4.850;2023-04-09T03:03:31;28.13;;;19.02;;
76039;SDS011;64736;50.462;4.850;2023-04-09T03:05:57;30.95;;;19.27;;
76039;SDS011;64736;50.462;4.850;2023-04-09T03:08:23;28.17;;;17.98;;
76039;SDS011;64736;50.462;4.850;2023-04-09T03:10:48;27.90;;;17.67;;
76039;SDS011;64736;50.462;4.850;2023-04-09T03:13:14;28.73;;;17.85;;
76039;SDS011;64736;50.462;4.850;2023-04-09T03:15:40;29.63;;;19.05;;
76039;SDS011;64736;50.462;4.850;2023-04-09T03:18:06;31.48;;;21.25;;
76039;SDS011;64736;50.462;4.850;2023-04-09T03:20:31;31.13;;;20.15;;
76039;SDS011;64736;50.462;4.850;2023-04-09T03:22:57;29.35;;;19.02;;
76039;SDS011;64736;50.462;4.850;2023-04-09T03:25:23;27.05;;;18.67;;
76039;SDS011;64736;50.462;4.850;2023-04-09T03:27:49;28.23;;;18.15;;
76039;SDS011;64736;50.462;4.850;2023-04-09T03:30:14;29.02;;;18.80;;
76039;SDS011;64736;50.462;4.850;2023-04-09T03:32:40;28.27;;;17.98;;
76039;SDS011;64736;50.462;4.850;2023-04-09T03:35:06;27.63;;;17.55;;
76039;SDS011;64736;50.462;4.850;2023-04-09T03:37:32;28.33;;;17.60;;
76039;SDS011;64736;50.462;4.850;2023-04-09T03:39:58;28.40;;;18.23;;
76039;SDS011;64736;50.462;4.850;2023-04-09T03:42:24;28.17;;;18.67;;
76039;SDS011;64736;50.462;4.850;2023-04-09T03:44:52;27.55;;;18.15;;
76039;SDS011;64736;50.462;4.850;2023-04-09T03:47:20;34.17;;;20.02;;
76039;SDS011;64736;50.462;4.850;2023-04-09T03:49:45;26.25;;;18.80;;
76039;SDS011;64736;50.462;4.850;2023-04-09T03:52:11;30.15;;;19.38;;
76039;SDS011;64736;50.462;4.850;2023-04-09T03:54:37;24.88;;;17.75;;
76039;SDS011;64736;50.462;4.850;2023-04-09T03:57:03;29.58;;;18.83;;
76039;SDS011;64736;50.462;4.850;2023-04-09T03:59:29;27.13;;;17.42;;
76039;SDS011;64736;50.462;4.850;2023-04-09T04:01:54;28.83;;;18.92;;
76039;SDS011;64736;50.462;4.850;2023-04-09T04:04:20;30.10;;;18.05;;
76039;SDS011;64736;50.462;4.850;2023-04-09T04:06:46;26.90;;;17.33;;
76039;SDS011;64736;50.462;4.850;2023-04-09T04:09:12;25.85;;;17.85;;
76039;SDS011;64736;50.462;4.850;2023-04-09T04:11:37;30.38;;;18.27;;
76039;SDS011;64736;50.462;4.850;2023-04-09T04:14:03;28.63;;;18.02;;
76039;SDS011;64736;50.462;4.850;2023-04-09T04:16:29;27.80;;;18.02;;
76039;SDS011;64736;50.462;4.850;2023-04-09T04:18:55;25.70;;;17.20;;
76039;SDS011;64736;50.462;4.850;2023-04-09T04:21:20;29.38;;;18.77;;
76039;SDS011;64736;50.462;4.850;2023-04-09T04:23:46;27.45;;;16.98;;
76039;SDS011;64736;50.462;4.850;2023-04-09T04:26:12;25.35;;;17.38;;
76039;SDS011;64736;50.462;4.850;2023-04-09T04:28:38;26.92;;;17.15;;
76039;SDS011;64736;50.462;4.850;2023-04-09T04:31:08;28.00;;;17.88;;
76039;SDS011;64736;50.462;4.850;2023-04-09T04:33:35;29.80;;;17.02;;
76039;SDS011;64736;50.462;4.850;2023-04-09T04:36:05;27.70;;;17.63;;
76039;SDS011;64736;50.462;4.850;2023-04-09T04:38:37;27.15;;;17.50;;
76039;SDS011;64736;50.462;4.850;2023-04-09T04:41:05;28.88;;;18.02;;
76039;SDS011;64736;50.462;4.850;2023-04-09T04:43:32;29.50;;;18.17;;
76039;SDS011;64736;50.462;4.850;2023-04-09T04:45:58;30.50;;;17.90;;
76039;SDS011;64736;50.462;4.850;2023-04-09T04:48:24;28.67;;;17.08;;
76039;SDS011;64736;50.462;4.850;2023-04-09T04:50:53;26.50;;;17.23;;
76039;SDS011;64736;50.462;4.850;2023-04-09T04:53:23;27.48;;;16.80;;
76039;SDS011;64736;50.462;4.850;2023-04-09T04:55:49;27.45;;;16.05;;
76039;SDS011;64736;50.462;4.850;2023-04-09T04:58:15;28.52;;;17.45;;
76039;SDS011;64736;50.462;4.850;2023-04-09T05:00:41;26.17;;;16.75;;
76039;SDS011;64736;50.462;4.850;2023-04-09T05:03:07;29.10;;;17.52;;
76039;SDS011;64736;50.462;4.850;2023-04-09T05:05:33;26.83;;;17.83;;
76039;SDS011;64736;50.462;4.850;2023-04-09T05:07:59;29.83;;;18.02;;
76039;SDS011;64736;50.462;4.850;2023-04-09T05:10:25;28.52;;;16.98;;
76039;SDS011;64736;50.462;4.850;2023-04-09T05:12:50;31.58;;;18.38;;
76039;SDS011;64736;50.462;4.850;2023-04-09T05:15:16;29.13;;;17.20;;
76039;SDS011;64736;50.462;4.850;2023-04-09T05:17:43;32.97;;;18.25;;
76039;SDS011;64736;50.462;4.850;2023-04-09T05:20:09;29.15;;;17.90;;
76039;SDS011;64736;50.462;4.850;2023-04-09T05:22:35;27.00;;;17.45;;
76039;SDS011;64736;50.462;4.850;2023-04-09T05:25:01;29.77;;;18.30;;
76039;SDS011;64736;50.462;4.850;2023-04-09T05:27:27;30.10;;;17.63;;
76039;SDS011;64736;50.462;4.850;2023-04-09T05:29:54;32.45;;;19.40;;
76039;SDS011;64736;50.462;4.850;2023-04-09T05:32:20;28.02;;;17.55;;
76039;SDS011;64736;50.462;4.850;2023-04-09T05:34:45;29.45;;;17.35;;
76039;SDS011;64736;50.462;4.850;2023-04-09T05:37:11;29.92;;;18.25;;
76039;SDS011;64736;50.462;4.850;2023-04-09T05:39:38;33.85;;;19.48;;
76039;SDS011;64736;50.462;4.850;2023-04-09T05:42:03;36.35;;;21.27;;
76039;SDS011;64736;50.462;4.850;2023-04-09T05:44:29;37.47;;;20.35;;
76039;SDS011;64736;50.462;4.850;2023-04-09T05:46:55;36.03;;;21.33;;
76039;SDS011;64736;50.462;4.850;2023-04-09T05:49:21;37.17;;;20.60;;
76039;SDS011;64736;50.462;4.850;2023-04-09T05:51:48;34.00;;;19.73;;
76039;SDS011;64736;50.462;4.850;2023-04-09T05:54:14;34.88;;;21.20;;
76039;SDS011;64736;50.462;4.850;2023-04-09T05:56:43;39.17;;;23.75;;
76039;SDS011;64736;50.462;4.850;2023-04-09T05:59:09;39.25;;;21.73;;
76039;SDS011;64736;50.462;4.850;2023-04-09T06:01:34;37.05;;;20.67;;
76039;SDS011;64736;50.462;4.850;2023-04-09T06:04:00;36.58;;;21.58;;
76039;SDS011;64736;50.462;4.850;2023-04-09T06:06:26;37.60;;;23.75;;
76039;SDS011;64736;50.462;4.850;2023-04-09T06:08:52;41.13;;;23.33;;
76039;SDS011;64736;50.462;4.850;2023-04-09T06:11:18;36.50;;;21.08;;
76039;SDS011;64736;50.462;4.850;2023-04-09T06:13:43;40.65;;;22.85;;
76039;SDS011;64736;50.462;4.850;2023-04-09T06:16:09;40.88;;;21.58;;
76039;SDS011;64736;50.462;4.850;2023-04-09T06:18:35;33.58;;;21.50;;
76039;SDS011;64736;50.462;4.850;2023-04-09T06:21:05;35.13;;;20.10;;
76039;SDS011;64736;50.462;4.850;2023-04-09T06:23:32;33.53;;;19.92;;
76039;SDS011;64736;50.462;4.850;2023-04-09T06:26:01;32.28;;;18.27;;
76039;SDS011;64736;50.462;4.850;2023-04-09T06:28:27;34.55;;;21.50;;
76039;SDS011;64736;50.462;4.850;2023-04-09T06:30:53;30.88;;;18.52;;
76039;SDS011;64736;50.462;4.850;2023-04-09T06:33:20;32.20;;;20.05;;
76039;SDS011;64736;50.462;4.850;2023-04-09T06:35:46;33.63;;;21.52;;
76039;SDS011;64736;50.462;4.850;2023-04-09T06:38:12;37.22;;;22.27;;
76039;SDS011;64736;50.462;4.850;2023-04-09T06:40:38;36.78;;;21.65;;
76039;SDS011;64736;50.462;4.850;2023-04-09T06:43:04;39.50;;;22.52;;
76039;SDS011;64736;50.462;4.850;2023-04-09T06:45:31;37.67;;;20.98;;
76039;SDS011;64736;50.462;4.850;2023-04-09T06:47:58;39.72;;;22.83;;
76039;SDS011;64736;50.462;4.850;2023-04-09T06:50:24;41.45;;;22.75;;
76039;SDS011;64736;50.462;4.850;2023-04-09T06:52:50;42.67;;;26.00;;
76039;SDS011;64736;50.462;4.850;2023-04-09T06:55:16;38.78;;;22.60;;
76039;SDS011;64736;50.462;4.850;2023-04-09T06:57:43;39.03;;;22.58;;
76039;SDS011;64736;50.462;4.850;2023-04-09T07:00:10;36.60;;;21.88;;
76039;SDS011;64736;50.462;4.850;2023-04-09T07:02:36;39.70;;;22.08;;
76039;SDS011;64736;50.462;4.850;2023-04-09T07:05:02;38.55;;;23.23;;
76039;SDS011;64736;50.462;4.850;2023-04-09T07:07:28;46.10;;;25.10;;
76039;SDS011;64736;50.462;4.850;2023-04-09T07:09:54;38.03;;;22.02;;
76039;SDS011;64736;50.462;4.850;2023-04-09T07:12:30;38.75;;;22.33;;
76039;SDS011;64736;50.462;4.850;2023-04-09T07:14:58;40.80;;;24.42;;
76039;SDS011;64736;50.462;4.850;2023-04-09T07:17:24;34.58;;;21.10;;
76039;SDS011;64736;50.462;4.850;2023-04-09T07:19:50;39.47;;;23.20;;
76039;SDS011;64736;50.462;4.850;2023-04-09T07:22:16;42.58;;;23.73;;
76039;SDS011;64736;50.462;4.850;2023-04-09T07:24:42;40.30;;;23.58;;
76039;SDS011;64736;50.462;4.850;2023-04-09T07:27:08;39.30;;;23.52;;
76039;SDS011;64736;50.462;4.850;2023-04-09T07:29:35;34.50;;;21.20;;
76039;SDS011;64736;50.462;4.850;2023-04-09T07:32:00;39.53;;;23.70;;
76039;SDS011;64736;50.462;4.850;2023-04-09T07:34:27;40.08;;;22.27;;
76039;SDS011;64736;50.462;4.850;2023-04-09T07:36:53;39.38;;;21.85;;
76039;SDS011;64736;50.462;4.850;2023-04-09T07:39:19;37.50;;;22.67;;
76039;SDS011;64736;50.462;4.850;2023-04-09T07:41:46;41.50;;;23.35;;
76039;SDS011;64736;50.462;4.850;2023-04-09T07:44:12;40.17;;;23.25;;
76039;SDS011;64736;50.462;4.850;2023-04-09T07:46:38;35.47;;;22.08;;
76039;SDS011;64736;50.462;4.850;2023-04-09T07:49:04;38.55;;;22.85;;
76039;SDS011;64736;50.462;4.850;2023-04-09T07:51:30;42.92;;;23.42;;
76039;SDS011;64736;50.462;4.850;2023-04-09T07:53:56;37.97;;;21.05;;
76039;SDS011;64736;50.462;4.850;2023-04-09T07:56:22;34.25;;;21.73;;
76039;SDS011;64736;50.462;4.850;2023-04-09T07:58:47;37.88;;;21.00;;
76039;SDS011;64736;50.462;4.850;2023-04-09T08:01:13;36.28;;;21.13;;
76039;SDS011;64736;50.462;4.850;2023-04-09T08:03:39;36.92;;;20.58;;
76039;SDS011;64736;50.462;4.850;2023-04-09T08:06:05;29.02;;;17.58;;
76039;SDS011;64736;50.462;4.850;2023-04-09T08:08:31;28.45;;;16.85;;
76039;SDS011;64736;50.462;4.850;2023-04-09T08:10:57;31.35;;;17.38;;
76039;SDS011;64736;50.462;4.850;2023-04-09T08:13:23;28.48;;;16.75;;
76039;SDS011;64736;50.462;4.850;2023-04-09T08:15:52;29.50;;;16.15;;
76039;SDS011;64736;50.462;4.850;2023-04-09T08:18:17;29.35;;;15.50;;
76039;SDS011;64736;50.462;4.850;2023-04-09T08:20:43;26.80;;;15.18;;
76039;SDS011;64736;50.462;4.850;2023-04-09T08:23:09;23.88;;;14.45;;
76039;SDS011;64736;50.462;4.850;2023-04-09T08:25:36;24.33;;;14.60;;
76039;SDS011;64736;50.462;4.850;2023-04-09T08:28:01;22.42;;;14.35;;
76039;SDS011;64736;50.462;4.850;2023-04-09T08:30:27;25.00;;;15.43;;
76039;SDS011;64736;50.462;4.850;2023-04-09T08:32:53;26.65;;;13.75;;
76039;SDS011;64736;50.462;4.850;2023-04-09T08:35:19;26.05;;;13.65;;
76039;SDS011;64736;50.462;4.850;2023-04-09T08:37:44;22.40;;;13.25;;
76039;SDS011;64736;50.462;4.850;2023-04-09T08:40:10;22.08;;;13.30;;
76039;SDS011;64736;50.462;4.850;2023-04-09T08:42:38;24.92;;;15.30;;
76039;SDS011;64736;50.462;4.850;2023-04-09T08:45:11;26.38;;;15.13;;
76039;SDS011;64736;50.462;4.850;2023-04-09T08:47:38;21.65;;;13.10;;
76039;SDS011;64736;50.462;4.850;2023-04-09T08:50:06;21.80;;;13.63;;
76039;SDS011;64736;50.462;4.850;2023-04-09T08:52:32;18.60;;;11.98;;
76039;SDS011;64736;50.462;4.850;2023-04-09T08:54:59;26.92;;;16.67;;
76039;SDS011;64736;50.462;4.850;2023-04-09T08:57:25;22.50;;;13.40;;
76039;SDS011;64736;50.462;4.850;2023-04-09T08:59:51;21.35;;;12.68;;
76039;SDS011;64736;50.462;4.850;2023-04-09T09:02:16;19.17;;;12.57;;
76039;SDS011;64736;50.462;4.850;2023-04-09T09:04:43;20.85;;;12.18;;
76039;SDS011;64736;50.462;4.850;2023-04-09T09:07:10;17.95;;;11.77;;
76039;SDS011;64736;50.462;4.850;2023-04-09T09:09:52;19.02;;;12.10;;
76039;SDS011;64736;50.462;4.850;2023-04-09T09:12:35;18.20;;;11.80;;
76039;SDS011;64736;50.462;4.850;2023-04-09T09:15:03;19.48;;;12.30;;
76039;SDS011;64736;50.462;4.850;2023-04-09T09:17:30;16.92;;;11.75;;
76039;SDS011;64736;50.462;4.850;2023-04-09T09:19:56;17.65;;;11.90;;
76039;SDS011;64736;50.462;4.850;2023-04-09T09:22:23;17.40;;;11.02;;
76039;SDS011;64736;50.462;4.850;2023-04-09T09:24:50;16.83;;;11.55;;
76039;SDS011;64736;50.462;4.850;2023-04-09T09:27:29;17.23;;;11.38;;
76039;SDS011;64736;50.462;4.850;2023-04-09T09:30:04;19.20;;;10.70;;
76039;SDS011;64736;50.462;4.850;2023-04-09T09:32:31;13.48;;;9.05;;
76039;SDS011;64736;50.462;4.850;2023-04-09T09:35:04;14.70;;;10.50;;
76039;SDS011;64736;50.462;4.850;2023-04-09T09:37:31;16.65;;;10.75;;
76039;SDS011;64736;50.462;4.850;2023-04-09T09:39:58;14.48;;;9.55;;
76039;SDS011;64736;50.462;4.850;2023-04-09T09:42:25;13.55;;;9.68;;
76039;SDS011;64736;50.462;4.850;2023-04-09T09:44:54;14.27;;;9.38;;
76039;SDS011;64736;50.462;4.850;2023-04-09T09:47:20;14.18;;;8.75;;
76039;SDS011;64736;50.462;4.850;2023-04-09T09:49:50;13.35;;;8.27;;
76039;SDS011;64736;50.462;4.850;2023-04-09T09:52:24;15.05;;;9.48;;
76039;SDS011;64736;50.462;4.850;2023-04-09T09:54:51;15.35;;;10.27;;
76039;SDS011;64736;50.462;4.850;2023-04-09T09:57:18;13.25;;;9.18;;
76039;SDS011;64736;50.462;4.850;2023-04-09T10:02:42;11.50;;;9.13;;
76039;SDS011;64736;50.462;4.850;2023-04-09T10:05:17;11.65;;;8.55;;
76039;SDS011;64736;50.462;4.850;2023-04-09T10:07:47;12.70;;;8.43;;
76039;SDS011;64736;50.462;4.850;2023-04-09T10:10:13;11.88;;;8.10;;
76039;SDS011;64736;50.462;4.850;2023-04-09T10:12:40;11.02;;;8.57;;
76039;SDS011;64736;50.462;4.850;2023-04-09T10:15:09;10.05;;;7.50;;
76039;SDS011;64736;50.462;4.850;2023-04-09T10:17:36;10.80;;;7.88;;
76039;SDS011;64736;50.462;4.850;2023-04-09T10:20:17;11.25;;;7.35;;
76039;SDS011;64736;50.462;4.850;2023-04-09T10:22:51;11.93;;;8.45;;
76039;SDS011;64736;50.462;4.850;2023-04-09T10:25:17;10.70;;;7.18;;
76039;SDS011;64736;50.462;4.850;2023-04-09T10:27:44;9.98;;;7.15;;
76039;SDS011;64736;50.462;4.850;2023-04-09T10:30:29;10.20;;;7.75;;
76039;SDS011;64736;50.462;4.850;2023-04-09T10:33:20;10.40;;;7.53;;
76039;SDS011;64736;50.462;4.850;2023-04-09T10:35:51;10.73;;;7.18;;
76039;SDS011;64736;50.462;4.850;2023-04-09T10:38:35;12.07;;;7.82;;
76039;SDS011;64736;50.462;4.850;2023-04-09T10:41:15;9.90;;;6.55;;
76039;SDS011;64736;50.462;4.850;2023-04-09T10:43:47;10.27;;;6.97;;
76039;SDS011;64736;50.462;4.850;2023-04-09T10:46:26;15.10;;;11.10;;
76039;SDS011;64736;50.462;4.850;2023-04-09T10:49:08;9.52;;;6.80;;
76039;SDS011;64736;50.462;4.850;2023-04-09T10:51:42;9.68;;;6.85;;
76039;SDS011;64736;50.462;4.850;2023-04-09T10:54:37;10.02;;;7.28;;
76039;SDS011;64736;50.462;4.850;2023-04-09T10:59:36;9.35;;;6.82;;
76039;SDS011;64736;50.462;4.850;2023-04-09T11:02:09;9.40;;;6.20;;
76039;SDS011;64736;50.462;4.850;2023-04-09T11:05:03;9.63;;;6.07;;
76039;SDS011;64736;50.462;4.850;2023-04-09T11:07:32;9.48;;;6.80;;
76039;SDS011;64736;50.462;4.850;2023-04-09T11:10:03;10.02;;;7.18;;
76039;SDS011;64736;50.462;4.850;2023-04-09T11:12:29;14.05;;;9.52;;
76039;SDS011;64736;50.462;4.850;2023-04-09T11:14:55;10.63;;;6.43;;
76039;SDS011;64736;50.462;4.850;2023-04-09T11:17:21;9.10;;;6.65;;
76039;SDS011;64736;50.462;4.850;2023-04-09T11:19:47;8.50;;;5.63;;
76039;SDS011;64736;50.462;4.850;2023-04-09T11:22:12;8.40;;;5.85;;
76039;SDS011;64736;50.462;4.850;2023-04-09T11:24:42;9.57;;;6.55;;
76039;SDS011;64736;50.462;4.850;2023-04-09T11:27:08;10.98;;;6.88;;
76039;SDS011;64736;50.462;4.850;2023-04-09T11:29:34;12.27;;;7.70;;
76039;SDS011;64736;50.462;4.850;2023-04-09T11:32:01;9.95;;;6.22;;
76039;SDS011;64736;50.462;4.850;2023-04-09T11:34:29;8.68;;;5.68;;
76039;SDS011;64736;50.462;4.850;2023-04-09T11:36:56;9.00;;;5.22;;
76039;SDS011;64736;50.462;4.850;2023-04-09T11:39:23;8.93;;;5.85;;
76039;SDS011;64736;50.462;4.850;2023-04-09T11:41:49;7.43;;;5.30;;
76039;SDS011;64736;50.462;4.850;2023-04-09T11:44:15;8.38;;;6.65;;
76039;SDS011;64736;50.462;4.850;2023-04-09T11:46:41;8.65;;;6.10;;
76039;SDS011;64736;50.462;4.850;2023-04-09T11:49:07;8.93;;;5.85;;
76039;SDS011;64736;50.462;4.850;2023-04-09T11:51:33;7.07;;;4.53;;
76039;SDS011;64736;50.462;4.850;2023-04-09T11:54:00;7.20;;;4.50;;
76039;SDS011;64736;50.462;4.850;2023-04-09T11:56:31;7.68;;;4.78;;
76039;SDS011;64736;50.462;4.850;2023-04-09T11:58:57;6.75;;;3.67;;
76039;SDS011;64736;50.462;4.850;2023-04-09T12:01:23;6.63;;;3.70;;
76039;SDS011;64736;50.462;4.850;2023-04-09T12:03:52;6.45;;;3.95;;
76039;SDS011;64736;50.462;4.850;2023-04-09T12:06:19;6.78;;;4.75;;
76039;SDS011;64736;50.462;4.850;2023-04-09T12:08:47;7.60;;;4.38;;
76039;SDS011;64736;50.462;4.850;2023-04-09T12:11:18;8.00;;;3.72;;
76039;SDS011;64736;50.462;4.850;2023-04-09T12:13:44;5.88;;;4.10;;
76039;SDS011;64736;50.462;4.850;2023-04-09T12:16:11;6.38;;;4.45;;
76039;SDS011;64736;50.462;4.850;2023-04-09T12:18:38;6.95;;;4.68;;
76039;SDS011;64736;50.462;4.850;2023-04-09T12:21:04;7.30;;;4.85;;
76039;SDS011;64736;50.462;4.850;2023-04-09T12:23:31;6.43;;;4.20;;
76039;SDS011;64736;50.462;4.850;2023-04-09T12:25:57;6.80;;;4.00;;
76039;SDS011;64736;50.462;4.850;2023-04-09T12:28:25;6.43;;;4.03;;
76039;SDS011;64736;50.462;4.850;2023-04-09T12:30:51;7.25;;;4.32;;
76039;SDS011;64736;50.462;4.850;2023-04-09T12:33:18;6.88;;;3.78;;
76039;SDS011;64736;50.462;4.850;2023-04-09T12:35:44;5.80;;;3.60;;
76039;SDS011;64736;50.462;4.850;2023-04-09T12:38:10;6.45;;;4.10;;
76039;SDS011;64736;50.462;4.850;2023-04-09T12:40:36;6.97;;;4.03;;
76039;SDS011;64736;50.462;4.850;2023-04-09T12:43:03;7.97;;;5.25;;
76039;SDS011;64736;50.462;4.850;2023-04-09T12:45:29;7.47;;;4.18;;
76039;SDS011;64736;50.462;4.850;2023-04-09T12:47:55;6.47;;;4.25;;
76039;SDS011;64736;50.462;4.850;2023-04-09T12:50:21;7.63;;;4.00;;
76039;SDS011;64736;50.462;4.850;2023-04-09T12:52:47;5.78;;;3.33;;
76039;SDS011;64736;50.462;4.850;2023-04-09T12:55:13;5.85;;;3.63;;
76039;SDS011;64736;50.462;4.850;2023-04-09T12:57:41;6.43;;;3.65;;
76039;SDS011;64736;50.462;4.850;2023-04-09T13:00:08;6.03;;;4.00;;
76039;SDS011;64736;50.462;4.850;2023-04-09T13:02:34;5.78;;;3.55;;
76039;SDS011;64736;50.462;4.850;2023-04-09T13:05:00;6.55;;;3.55;;
76039;SDS011;64736;50.462;4.850;2023-04-09T13:07:26;8.27;;;3.65;;
76039;SDS011;64736;50.462;4.850;2023-04-09T13:09:54;5.55;;;3.33;;
76039;SDS011;64736;50.462;4.850;2023-04-09T13:12:20;6.43;;;3.92;;
76039;SDS011;64736;50.462;4.850;2023-04-09T13:14:47;5.72;;;4.00;;
76039;SDS011;64736;50.462;4.850;2023-04-09T13:17:14;7.38;;;4.40;;
76039;SDS011;64736;50.462;4.850;2023-04-09T13:19:40;5.90;;;3.55;;
76039;SDS011;64736;50.462;4.850;2023-04-09T13:22:06;7.60;;;3.55;;
76039;SDS011;64736;50.462;4.850;2023-04-09T13:24:36;6.05;;;3.10;;
76039;SDS011;64736;50.462;4.850;2023-04-09T13:27:06;5.55;;;3.20;;
76039;SDS011;64736;50.462;4.850;2023-04-09T13:29:34;5.30;;;3.45;;
76039;SDS011;64736;50.462;4.850;2023-04-09T13:32:00;5.90;;;3.60;;
76039;SDS011;64736;50.462;4.850;2023-04-09T13:34:31;6.28;;;3.65;;
76039;SDS011;64736;50.462;4.850;2023-04-09T13:36:59;5.97;;;3.47;;
76039;SDS011;64736;50.462;4.850;2023-04-09T13:39:25;6.97;;;3.50;;
76039;SDS011;64736;50.462;4.850;2023-04-09T13:41:51;6.65;;;3.58;;
76039;SDS011;64736;50.462;4.850;2023-04-09T13:44:19;6.30;;;3.50;;
76039;SDS011;64736;50.462;4.850;2023-04-09T13:46:47;5.88;;;3.38;;
76039;SDS011;64736;50.462;4.850;2023-04-09T13:49:13;5.63;;;3.75;;
76039;SDS011;64736;50.462;4.850;2023-04-09T13:51:39;5.95;;;3.85;;
76039;SDS011;64736;50.462;4.850;2023-04-09T13:54:04;5.57;;;3.90;;
76039;SDS011;64736;50.462;4.850;2023-04-09T13:56:33;5.97;;;3.60;;
76039;SDS011;64736;50.462;4.850;2023-04-09T13:58:58;5.88;;;4.00;;
76039;SDS011;64736;50.462;4.850;2023-04-09T14:01:24;6.72;;;3.63;;
76039;SDS011;64736;50.462;4.850;2023-04-09T14:03:52;7.22;;;3.75;;
76039;SDS011;64736;50.462;4.850;2023-04-09T14:06:18;5.63;;;3.58;;
76039;SDS011;64736;50.462;4.850;2023-04-09T14:08:44;5.88;;;3.72;;
76039;SDS011;64736;50.462;4.850;2023-04-09T14:11:09;5.85;;;3.42;;
76039;SDS011;64736;50.462;4.850;2023-04-09T14:13:38;5.90;;;3.45;;
76039;SDS011;64736;50.462;4.850;2023-04-09T14:16:04;5.95;;;3.80;;
76039;SDS011;64736;50.462;4.850;2023-04-09T14:18:30;5.53;;;3.70;;
76039;SDS011;64736;50.462;4.850;2023-04-09T14:20:56;6.28;;;3.78;;
76039;SDS011;64736;50.462;4.850;2023-04-09T14:23:24;6.72;;;4.15;;
76039;SDS011;64736;50.462;4.850;2023-04-09T14:25:50;6.00;;;3.45;;
76039;SDS011;64736;50.462;4.850;2023-04-09T14:28:17;7.28;;;3.88;;
76039;SDS011;64736;50.462;4.850;2023-04-09T14:30:43;7.18;;;3.60;;
76039;SDS011;64736;50.462;4.850;2023-04-09T14:33:09;6.32;;;3.63;;
76039;SDS011;64736;50.462;4.850;2023-04-09T14:35:35;5.78;;;3.88;;
76039;SDS011;64736;50.462;4.850;2023-04-09T14:38:01;7.05;;;3.63;;
76039;SDS011;64736;50.462;4.850;2023-04-09T14:40:31;7.88;;;3.75;;
76039;SDS011;64736;50.462;4.850;2023-04-09T14:42:58;7.82;;;3.65;;
76039;SDS011;64736;50.462;4.850;2023-04-09T14:45:23;6.07;;;4.03;;
76039;SDS011;64736;50.462;4.850;2023-04-09T14:47:49;6.25;;;4.00;;
76039;SDS011;64736;50.462;4.850;2023-04-09T14:50:15;6.78;;;3.85;;